Chattaroy, WA (99003)

6:26 AM PDT on September 03, 2015 (GMT -0700)
Mt. Kit Carson | | Change Station
CLOSE
Current Station
Personal Weather Station
Location: Chattaroy, WA
Elevation: 2887 ft
Nearby Weather Stations

Elev 2887 ft 47.89 °N, 117.19 °W | Updated 14 seconds ago

Overcast
Overcast
48.2 °F
Feels Like 48 °F
N
0.0
Wind Variable Wind from ESE
Gusts 0.0 mph

Today
High -- | Low -- °F
--% Chance of Precip.
Yesterday
High -- | Low -- °F
Precip. -- in
6:09 AM 7:26 PM
Waning Gibbous, 70% visible
Pressure 29.90 in
Visibility 10.0 miles
Clouds Few 6500 ft
Windchill 48 °F
Dew Point 44 °F
Humidity 84%
Rainfall 0.00 in
Snow Depth Not available.
UV 0.0 out of 12
Pollen 7.00 out of 12
Air Quality Not available.
Flu Activity Not available.
METAR KDEW 031253Z AUTO 16005KT 10SM FEW065 08/06 A2991 RMK AO2 RAE10 SLP123 P0000 T00830061
Pressure 29.90 in
Visibility 10.0 miles
Clouds Few 6500 ft
Windchill 48 °F
Dew Point 44 °F
Humidity 84%
Rainfall 0.00 in
Snow Depth Not available.
UV 0.0 out of 12
Pollen 7.00 out of 12
Air Quality Not available.
Flu Activity Not available.
METAR KDEW 031253Z AUTO 16005KT 10SM FEW065 08/06 A2991 RMK AO2 RAE10 SLP123 P0000 T00830061

10-Day Weather Forecast

×

Almanac

Astronomy

Sep. 03, 2015 Rise Set
Actual Time
Civil Twilight
Nautical Twilight
Astronomical Twilight
Moon
Length of Visible Light
Length of Day
Tomorrow will be .
, % of the Moon is Illuminated

Today's Extremes

State Highs State Lows

Community

WunderPhotos

Upload Photos

1,851,953 photos uploaded!

WunderBlogs® & News

Nearby

Air Quality

  Air Quality AQ Index Pollutant
Not available.

Snow Depth

Station Depth Elevation

Earthquake Activity

City Distance Mag. Time & Date
Minimum magnitude displayed is 2.5.

Coastal Water Temperatures

Place Temperature

Stations

Nearby Weather Stations

Station Location Temp. Windchill Dew Point Humidity Wind Precip. Elev Updated Type